Terminal Aerodrome Forecast
Issued by NWS

Home | Current Version | Previous Version | Text Only | Print | Product List | Glossary On
Versions: 1 2 3 4 5 6 7 8 9 10 11 12 13 14 15 16 17 18
000
FTUS41 KPBZ 270500
TAFAGC
TAF
KAGC 270530Z 2706/2806 32005KT 2SM -SN OVC035
     FM270700 30005KT 4SM -SN BKN035 OVC080
     FM270730 32008KT P6SM BKN035
     FM271500 30005KT P6SM FEW035=

USA.gov is the U.S. government's official web portal to all federal, state and local government web resources and services.